To NAV CANADA Home Page Login to a new session Search on AWWS site Feedback and Comments Disclaimer Vers la page française équivalente Tips FAQ What's new on the site To the Forecasts and Observations / NOTAM section To "File a Flight Plan" website Publications and other links Update of the User's profile FIC Telephone Numbers My Weather Data Folder Route Weather Data Regional Weather Data Local Weather Data To the Forecasts and Observations / NOTAM section
Request Generated 10/17/2017 at 01:51:00 UTC . Weather information available at that time is displayed.

METAR/TAF

GOOSE BAY/NL    

METAR CYYR 170100Z 27008KT 15SM FEW040 FEW060 M00/M05 A2985 RMK SC1SC1 AURBO SLP111=
METAR CYYR 170000Z 29009KT 15SM FEW040 FEW060 01/M05 A2983 RMK SC1SC1 SLP104=
METAR CYYR 162300Z 29010KT 15SM FEW060 01/M05 A2981 RMK SC2 SLP099=

TAF CYYR 162330Z 1700/1724 29008KT P6SM SCT060
BECMG 1701/1703 25008KT
FM170900 27010KT P6SM BKN030
RMK NXT FCST BY 170600Z=
Your time UTC time
Weather data provided by Environment Canada and NAV CANADA